createdAt,value
2022-10-13T00:00:46.945Z,101711.19
2022-10-13T00:03:14.806Z,101698.50
2022-10-13T00:05:44.207Z,101711.09
2022-10-13T00:08:12.834Z,101713.25
2022-10-13T00:10:41.004Z,101715.28
2022-10-13T00:13:08.668Z,101709.31
2022-10-13T00:15:40.594Z,101704.66
2022-10-13T00:18:08.298Z,101707.03
2022-10-13T00:20:36.314Z,101700.06
2022-10-13T00:23:03.205Z,101696.50
2022-10-13T00:25:30.204Z,101706.56
2022-10-13T00:27:57.056Z,101692.53
2022-10-13T00:30:24.456Z,101695.91
2022-10-13T00:32:51.398Z,101699.38
2022-10-13T00:35:18.341Z,101689.78
2022-10-13T00:37:45.144Z,101683.94
2022-10-13T00:40:12.498Z,101695.13
2022-10-13T00:42:41.993Z,101688.94
2022-10-13T00:45:17.859Z,101683.66
2022-10-13T00:47:50.526Z,101681.16
2022-10-13T00:50:23.671Z,101682.09
2022-10-13T00:52:53.118Z,101675.34
2022-10-13T00:55:25.032Z,101681.41
2022-10-13T00:57:55.359Z,101686.63
2022-10-13T01:00:25.944Z,101682.22
2022-10-13T01:02:53.032Z,101680.66
2022-10-13T01:05:21.411Z,101676.16
2022-10-13T01:07:50.397Z,101664.75
2022-10-13T01:10:37.579Z,101669.81
2022-10-13T01:13:17.893Z,101669.19
2022-10-13T01:16:32.451Z,101680.50
2022-10-13T01:19:37.494Z,101677.19
2022-10-13T01:22:29.114Z,101680.94
2022-10-13T01:25:01.951Z,101669.06
2022-10-13T01:27:38.058Z,101664.97
2022-10-13T01:30:10.782Z,101654.69
2022-10-13T01:32:46.591Z,101653.56
2022-10-13T01:35:23.718Z,101656.06
2022-10-13T01:38:08.480Z,101650.00
2022-10-13T01:40:56.058Z,101655.97
2022-10-13T01:43:29.606Z,101663.88
2022-10-13T01:46:21.550Z,101672.53
2022-10-13T01:48:51.970Z,101674.44
2022-10-13T01:51:21.981Z,101669.41
2022-10-13T01:53:49.651Z,101665.22
2022-10-13T01:56:17.202Z,101660.09
2022-10-13T01:58:45.590Z,101636.81
2022-10-13T02:01:32.861Z,101637.72
2022-10-13T02:04:13.060Z,101625.66
2022-10-13T02:06:41.444Z,101630.00
2022-10-13T02:09:19.292Z,101638.63
2022-10-13T02:11:55.758Z,101650.00
2022-10-13T02:14:26.651Z,101644.88
2022-10-13T02:16:56.210Z,101634.56
2022-10-13T02:19:23.914Z,101634.63
2022-10-13T02:21:53.428Z,101636.53
2022-10-13T02:24:20.725Z,101643.59
2022-10-13T02:26:48.076Z,101647.88
2022-10-13T02:29:17.026Z,101645.28
2022-10-13T02:31:45.249Z,101645.28
2022-10-13T02:34:12.850Z,101638.53
2022-10-13T02:36:40.625Z,101650.09
2022-10-13T02:39:08.996Z,101649.66
2022-10-13T02:41:36.104Z,101646.38
2022-10-13T02:44:03.146Z,101653.50
2022-10-13T02:46:29.976Z,101654.59
2022-10-13T02:48:57.134Z,101643.56
2022-10-13T02:51:23.925Z,101629.88
2022-10-13T02:53:50.767Z,101636.00
2022-10-13T02:56:17.712Z,101633.53
2022-10-13T02:58:44.558Z,101637.09
2022-10-13T03:01:13.619Z,101632.03
2022-10-13T03:03:40.698Z,101621.69
2022-10-13T03:06:07.962Z,101627.84
2022-10-13T03:08:36.181Z,101613.09
2022-10-13T03:11:03.332Z,101607.94
2022-10-13T03:13:30.374Z,101620.81
2022-10-13T03:15:57.322Z,101618.03
2022-10-13T03:18:24.262Z,101612.81
2022-10-13T03:21:01.466Z,101606.00
2022-10-13T03:23:28.751Z,101613.91
2022-10-13T03:25:56.055Z,101599.25
2022-10-13T03:28:23.290Z,101601.69
2022-10-13T03:30:52.869Z,101605.09
2022-10-13T03:33:19.702Z,101607.84
2022-10-13T03:35:46.650Z,101611.38
2022-10-13T03:38:13.526Z,101614.09
2022-10-13T03:40:40.448Z,101605.47
2022-10-13T03:43:07.382Z,101605.41
2022-10-13T03:45:34.332Z,101595.91
2022-10-13T03:48:01.328Z,101597.75
2022-10-13T03:50:28.220Z,101601.31
2022-10-13T03:52:55.064Z,101580.78
2022-10-13T03:55:21.904Z,101582.41
2022-10-13T03:57:48.701Z,101575.56
2022-10-13T04:00:16.008Z,101560.97
2022-10-13T04:02:43.088Z,101569.59
2022-10-13T04:05:10.249Z,101573.16
2022-10-13T04:07:37.238Z,101568.88
2022-10-13T04:10:06.886Z,101567.22
2022-10-13T04:12:37.130Z,101561.88
2022-10-13T04:15:04.788Z,101565.13
2022-10-13T04:17:31.675Z,101575.22
2022-10-13T04:19:58.537Z,101581.19
2022-10-13T04:22:25.412Z,101590.69
2022-10-13T04:24:52.252Z,101598.53
2022-10-13T04:27:20.286Z,101601.28
2022-10-13T04:29:47.117Z,101601.56
2022-10-13T04:32:13.964Z,101593.06
2022-10-13T04:34:40.958Z,101541.81
2022-10-13T04:37:07.809Z,101591.56
2022-10-13T04:39:34.745Z,101594.34
2022-10-13T04:42:01.796Z,101588.41
2022-10-13T04:44:28.687Z,101585.22
2022-10-13T04:46:55.642Z,101582.72
2022-10-13T04:49:22.626Z,101581.09
2022-10-13T04:51:49.675Z,101579.53
2022-10-13T04:54:16.518Z,101579.66
2022-10-13T04:56:45.967Z,101566.75
2022-10-13T04:59:12.775Z,101570.09
2022-10-13T05:01:39.818Z,101565.84
2022-10-13T05:04:07.327Z,101559.84
2022-10-13T05:06:39.274Z,101554.75
2022-10-13T05:09:16.574Z,101553.13
2022-10-13T05:11:43.714Z,101532.41
2022-10-13T05:14:10.864Z,101530.63
2022-10-13T05:16:37.814Z,101521.97
2022-10-13T05:19:04.655Z,101508.22
2022-10-13T05:21:31.554Z,101498.84
2022-10-13T05:23:58.800Z,101497.09
2022-10-13T05:26:29.071Z,101492.78
2022-10-13T05:28:57.367Z,101503.94
2022-10-13T05:31:26.090Z,101491.91
2022-10-13T05:33:53.440Z,101516.03
2022-10-13T05:36:23.618Z,101530.81
2022-10-13T05:38:56.913Z,101520.50
2022-10-13T05:41:25.744Z,101539.69
2022-10-13T05:43:57.562Z,101532.88
2022-10-13T05:46:25.060Z,101532.84
2022-10-13T05:48:52.371Z,101534.66
2022-10-13T05:51:33.654Z,101548.66
2022-10-13T05:54:15.386Z,101552.19
2022-10-13T05:56:51.907Z,101542.84
2022-10-13T05:59:26.092Z,101536.91
2022-10-13T06:01:54.647Z,101523.22
2022-10-13T06:04:27.075Z,101537.03
2022-10-13T06:06:53.978Z,101547.38
2022-10-13T06:09:21.231Z,101545.63
2022-10-13T06:11:48.118Z,101534.44
2022-10-13T06:14:14.973Z,101529.25
2022-10-13T06:16:42.424Z,101537.84
2022-10-13T06:19:09.314Z,101536.81
2022-10-13T06:21:36.509Z,101534.91
2022-10-13T06:24:03.672Z,101532.38
2022-10-13T06:26:30.553Z,101543.41
2022-10-13T06:28:59.701Z,101540.00
2022-10-13T06:31:27.498Z,101527.84
2022-10-13T06:33:54.418Z,101526.13
2022-10-13T06:36:21.661Z,101509.88
2022-10-13T06:38:48.558Z,101521.03
2022-10-13T06:41:15.654Z,101530.53
2022-10-13T06:43:42.705Z,101532.34
2022-10-13T06:46:10.312Z,101538.34
2022-10-13T06:48:37.210Z,101544.34
2022-10-13T06:51:12.389Z,101553.50
2022-10-13T06:53:39.242Z,101548.28
2022-10-13T06:56:07.621Z,101543.81
2022-10-13T06:58:36.399Z,101544.56
2022-10-13T07:01:04.022Z,101551.28
2022-10-13T07:03:31.015Z,101543.22
2022-10-13T07:06:05.697Z,101542.78
2022-10-13T07:08:33.346Z,101528.72
2022-10-13T07:11:00.241Z,101531.94
2022-10-13T07:13:27.842Z,101529.19
2022-10-13T07:15:54.799Z,101531.59
2022-10-13T07:18:21.698Z,101535.56
2022-10-13T07:20:48.598Z,101534.13
2022-10-13T07:23:15.468Z,101532.88
2022-10-13T07:25:42.380Z,101528.94
2022-10-13T07:28:09.330Z,101529.34
2022-10-13T07:30:38.512Z,101533.34
2022-10-13T07:33:05.469Z,101525.09
2022-10-13T07:35:32.598Z,101529.16
2022-10-13T07:37:59.554Z,101534.00
2022-10-13T07:40:26.961Z,101532.84
2022-10-13T07:42:56.002Z,101535.16
2022-10-13T07:45:22.898Z,101529.72
2022-10-13T07:47:49.917Z,101540.69
2022-10-13T07:50:16.997Z,101532.66
2022-10-13T07:52:43.941Z,101534.16
2022-10-13T07:55:10.737Z,101540.84
2022-10-13T07:57:38.130Z,101549.28
2022-10-13T08:00:09.893Z,101552.53
2022-10-13T08:02:36.790Z,101547.75
2022-10-13T08:05:04.351Z,101554.38
2022-10-13T08:07:31.270Z,101554.00
2022-10-13T08:09:58.344Z,101556.25
2022-10-13T08:12:25.186Z,101557.75
2022-10-13T08:14:52.013Z,101559.03
2022-10-13T08:17:19.108Z,101561.28
2022-10-13T08:19:46.170Z,101554.88
2022-10-13T08:22:13.268Z,101558.06
2022-10-13T08:24:40.166Z,101533.72
2022-10-13T08:27:10.034Z,101551.31
2022-10-13T08:29:37.034Z,101551.84
2022-10-13T08:32:04.031Z,101555.56
2022-10-13T08:34:31.061Z,101543.69
2022-10-13T08:36:59.902Z,101542.88
2022-10-13T08:39:26.951Z,101539.69
2022-10-13T08:41:55.330Z,101535.31
2022-10-13T08:45:16.201Z,101537.66
2022-10-13T08:48:00.370Z,101526.06
2022-10-13T08:50:32.103Z,101518.59
2022-10-13T08:53:01.909Z,101508.00
2022-10-13T08:55:32.993Z,101511.53
2022-10-13T08:58:01.171Z,101505.13
2022-10-13T09:00:30.121Z,101498.47
2022-10-13T09:03:17.954Z,101504.09
2022-10-13T09:06:05.789Z,101501.59
2022-10-13T09:08:40.629Z,101495.91
2022-10-13T09:11:10.064Z,101499.78
2022-10-13T09:13:36.909Z,101495.88
2022-10-13T09:16:03.906Z,101487.13
2022-10-13T09:18:32.386Z,101476.47
2022-10-13T09:21:16.021Z,101480.28
2022-10-13T09:23:42.942Z,101484.66
2022-10-13T09:26:18.208Z,101479.06
2022-10-13T09:28:45.193Z,101487.19
2022-10-13T09:31:38.678Z,101482.41
2022-10-13T09:34:18.975Z,101484.88
2022-10-13T09:37:03.678Z,101486.50
2022-10-13T09:39:31.773Z,101479.09
2022-10-13T09:42:22.493Z,101480.31
2022-10-13T09:44:57.590Z,101478.34
2022-10-13T09:47:26.958Z,101470.47
2022-10-13T09:50:16.305Z,101465.41
2022-10-13T09:52:48.489Z,101457.56
2022-10-13T09:55:32.622Z,101451.34
2022-10-13T09:58:14.791Z,101455.28
2022-10-13T10:00:42.188Z,101444.09
2022-10-13T10:03:22.501Z,101443.44
2022-10-13T10:05:55.587Z,101433.84
2022-10-13T10:08:33.854Z,101428.19
2022-10-13T10:11:12.420Z,101424.22
2022-10-13T10:13:39.414Z,101436.19
2022-10-13T10:16:08.254Z,101427.34
2022-10-13T10:19:00.454Z,101428.16
2022-10-13T10:21:45.772Z,101417.63
2022-10-13T10:24:28.739Z,101418.53
2022-10-13T10:26:56.726Z,101409.19
2022-10-13T10:29:37.143Z,101417.34
2022-10-13T10:32:28.986Z,101412.06
2022-10-13T10:35:02.495Z,101409.84
2022-10-13T10:37:56.984Z,101405.44
2022-10-13T10:40:52.010Z,101406.00
2022-10-13T10:43:40.080Z,101404.69
2022-10-13T10:46:17.271Z,101395.06
2022-10-13T10:48:46.478Z,101379.34
2022-10-13T10:51:14.641Z,101374.88
2022-10-13T10:54:01.394Z,101372.50
2022-10-13T10:56:32.342Z,101366.09
2022-10-13T10:59:50.531Z,101370.06
2022-10-13T11:02:47.068Z,101375.66
2022-10-13T11:05:15.258Z,101383.81
2022-10-13T11:07:43.162Z,101380.31
2022-10-13T11:10:19.133Z,101398.75
2022-10-13T11:12:47.241Z,101388.97
2022-10-13T11:15:25.861Z,101397.97
2022-10-13T11:17:52.864Z,101394.63
2022-10-13T11:20:22.472Z,101388.53
2022-10-13T11:22:58.737Z,101392.41
2022-10-13T11:25:46.564Z,101404.38
2022-10-13T11:28:22.545Z,101401.22
2022-10-13T11:30:56.681Z,101397.94
2022-10-13T11:33:38.636Z,101397.97
2022-10-13T11:36:33.630Z,101392.44
2022-10-13T11:39:26.842Z,101381.63
2022-10-13T11:42:15.087Z,101370.06
2022-10-13T11:45:02.497Z,101375.63
2022-10-13T11:48:06.440Z,101369.59
2022-10-13T11:50:56.525Z,101355.66
2022-10-13T11:53:28.177Z,101359.66
2022-10-13T11:56:01.823Z,101363.47
2022-10-13T11:58:33.783Z,101358.59
2022-10-13T12:01:12.300Z,101353.41
2022-10-13T12:03:41.979Z,101351.44
2022-10-13T12:06:33.629Z,101348.13
2022-10-13T12:09:19.175Z,101330.28
2022-10-13T12:11:46.983Z,101334.59
2022-10-13T12:14:24.562Z,101335.72
2022-10-13T12:19:31.557Z,101315.50
2022-10-13T12:22:01.536Z,101325.75
2022-10-13T12:24:30.811Z,101324.66
2022-10-13T12:26:58.734Z,101322.75
2022-10-13T12:29:31.165Z,101324.53
2022-10-13T12:32:03.768Z,101334.59
2022-10-13T12:34:35.310Z,101338.50
2022-10-13T12:37:25.248Z,101344.25
2022-10-13T12:39:52.867Z,101337.97
2022-10-13T12:42:21.248Z,101330.47
2022-10-13T12:44:48.389Z,101339.34
2022-10-13T12:47:48.044Z,101344.25
2022-10-13T12:50:29.842Z,101341.00
2022-10-13T12:53:06.413Z,101336.28
2022-10-13T12:55:33.864Z,101336.84
2022-10-13T12:58:03.120Z,101335.94
2022-10-13T13:00:31.163Z,101333.56
2022-10-13T13:03:03.659Z,101326.47
2022-10-13T13:05:32.182Z,101324.22
2022-10-13T13:07:59.611Z,101315.91
2022-10-13T13:10:27.099Z,101313.50
2022-10-13T13:12:55.279Z,101319.53
2022-10-13T13:15:24.988Z,101315.91
2022-10-13T13:17:58.220Z,101308.06
2022-10-13T13:20:35.056Z,101308.34
2022-10-13T13:23:02.256Z,101297.75
2022-10-13T13:25:29.276Z,101293.66
2022-10-13T13:27:56.146Z,101286.56
2022-10-13T13:30:24.974Z,101279.94
2022-10-13T13:32:51.889Z,101279.94
2022-10-13T13:35:19.245Z,101274.75
2022-10-13T13:37:50.057Z,101274.63
2022-10-13T13:40:22.867Z,101269.34
2022-10-13T13:42:49.855Z,101263.69
2022-10-13T13:45:19.462Z,101279.81
2022-10-13T13:47:46.967Z,101267.91
2022-10-13T13:50:17.751Z,101277.22
2022-10-13T13:52:44.854Z,101286.81
2022-10-13T13:55:11.945Z,101277.44
2022-10-13T13:57:38.843Z,101273.34
2022-10-13T14:00:06.971Z,101274.56
2022-10-13T14:02:33.911Z,101271.19
2022-10-13T14:05:00.913Z,101269.28
2022-10-13T14:07:28.258Z,101272.47
2022-10-13T14:09:57.901Z,101264.19
2022-10-13T14:12:30.960Z,101264.13
2022-10-13T14:14:58.681Z,101266.94
2022-10-13T14:17:26.587Z,101256.88
2022-10-13T14:19:53.632Z,101266.72
2022-10-13T14:22:21.155Z,101268.44
2022-10-13T14:24:48.433Z,101262.75
2022-10-13T14:27:15.596Z,101264.34
2022-10-13T14:29:42.709Z,101263.09
2022-10-13T14:32:09.846Z,101269.97
2022-10-13T14:34:36.847Z,101274.34
2022-10-13T14:37:03.998Z,101272.84
2022-10-13T14:39:31.040Z,101272.22
2022-10-13T14:41:58.138Z,101274.03
2022-10-13T14:44:25.846Z,101277.38
2022-10-13T14:46:52.940Z,101272.22
2022-10-13T14:49:20.017Z,101275.94
2022-10-13T14:51:47.057Z,101281.31
2022-10-13T14:54:14.096Z,101278.34
2022-10-13T14:56:41.201Z,101285.19
2022-10-13T14:59:10.138Z,101286.78
2022-10-13T15:01:38.513Z,101277.75
2022-10-13T15:04:05.513Z,101270.84
2022-10-13T15:06:32.703Z,101273.28
2022-10-13T15:08:59.967Z,101273.03
2022-10-13T15:11:27.492Z,101264.22
2022-10-13T15:13:54.567Z,101264.41
2022-10-13T15:16:24.019Z,101269.69
2022-10-13T15:18:51.629Z,101265.38
2022-10-13T15:21:19.339Z,101263.38
2022-10-13T15:23:46.502Z,101260.47
2022-10-13T15:26:15.899Z,101252.31
2022-10-13T15:28:45.720Z,101250.03
2022-10-13T15:31:13.739Z,101252.28
2022-10-13T15:33:46.250Z,101249.94
2022-10-13T15:36:13.354Z,101250.28
2022-10-13T15:38:40.965Z,101248.28
2022-10-13T15:41:08.730Z,101238.25
2022-10-13T15:43:35.826Z,101249.56
2022-10-13T15:46:21.505Z,101246.84
2022-10-13T15:48:50.043Z,101242.44
2022-10-13T15:51:19.772Z,101254.09
2022-10-13T15:53:49.885Z,101257.69
2022-10-13T15:56:17.642Z,101252.53
2022-10-13T15:58:45.826Z,101268.25
2022-10-13T16:01:14.655Z,101260.34
2022-10-13T16:03:42.275Z,101263.09
2022-10-13T16:06:11.817Z,101256.19
2022-10-13T16:08:40.760Z,101259.91
2022-10-13T16:11:09.614Z,101258.31
2022-10-13T16:13:38.949Z,101257.47
2022-10-13T16:16:06.520Z,101260.00
2022-10-13T16:18:35.705Z,101249.34
2022-10-13T16:21:18.094Z,101240.69
2022-10-13T16:23:46.093Z,101244.16
2022-10-13T16:26:13.392Z,101248.72
2022-10-13T16:28:40.637Z,101237.44
2022-10-13T16:31:13.519Z,101239.38
2022-10-13T16:33:41.918Z,101233.72
2022-10-13T16:36:11.917Z,101235.72
2022-10-13T16:38:39.221Z,101241.38
2022-10-13T16:41:08.472Z,101238.19
2022-10-13T16:43:35.466Z,101242.00
2022-10-13T16:46:05.019Z,101244.94
2022-10-13T16:48:33.397Z,101244.47
2022-10-13T16:51:05.673Z,101237.19
2022-10-13T16:53:33.025Z,101242.09
2022-10-13T16:56:00.021Z,101238.16
2022-10-13T16:58:27.074Z,101250.06
2022-10-13T17:00:54.206Z,101246.97
2022-10-13T17:03:21.216Z,101237.84
2022-10-13T17:05:48.123Z,101235.69
2022-10-13T17:08:15.120Z,101240.63
2022-10-13T17:10:42.516Z,101236.63
2022-10-13T17:13:09.650Z,101242.38
2022-10-13T17:15:36.821Z,101235.16
2022-10-13T17:18:04.675Z,101234.28
2022-10-13T17:20:31.596Z,101243.69
2022-10-13T17:22:58.670Z,101248.66
2022-10-13T17:25:25.533Z,101251.91
2022-10-13T17:27:52.557Z,101250.69
2022-10-13T17:30:19.812Z,101254.72
2022-10-13T17:32:46.710Z,101250.91
2022-10-13T17:35:18.086Z,101250.53
2022-10-13T17:37:45.003Z,101248.34
2022-10-13T17:40:12.161Z,101245.66
2022-10-13T17:42:39.050Z,101237.53
2022-10-13T17:45:06.251Z,101239.81
2022-10-13T17:47:33.193Z,101245.66
2022-10-13T17:50:00.100Z,101257.44
2022-10-13T17:52:27.187Z,101241.38
2022-10-13T17:54:56.129Z,101241.75
2022-10-13T17:57:23.414Z,101246.50
2022-10-13T17:59:50.575Z,101236.44
2022-10-13T18:02:19.147Z,101233.38
2022-10-13T18:04:46.629Z,101224.13
2022-10-13T18:07:13.614Z,101233.28
2022-10-13T18:09:40.560Z,101243.25
2022-10-13T18:12:07.970Z,101247.28
2022-10-13T18:14:34.811Z,101263.31
2022-10-13T18:17:02.319Z,101261.03
2022-10-13T18:19:29.315Z,101263.97
2022-10-13T18:21:56.253Z,101267.97
2022-10-13T18:24:24.940Z,101262.31
2022-10-13T18:26:52.140Z,101265.44
2022-10-13T18:29:19.293Z,101277.25
2022-10-13T18:31:46.342Z,101270.69
2022-10-13T18:34:17.232Z,101294.38
2022-10-13T18:36:48.213Z,101285.88
2022-10-13T18:39:18.777Z,101282.56
2022-10-13T18:41:46.258Z,101279.31
2022-10-13T18:44:13.256Z,101286.56
2022-10-13T18:46:40.469Z,101292.88
2022-10-13T18:49:09.548Z,101292.25
2022-10-13T18:51:36.896Z,101285.47
2022-10-13T18:54:06.010Z,101269.97
2022-10-13T18:56:34.178Z,101267.50
2022-10-13T18:59:02.668Z,101272.78
2022-10-13T19:01:32.868Z,101270.34
2022-10-13T19:04:01.146Z,101256.44
2022-10-13T19:06:32.499Z,101256.44
2022-10-13T19:09:04.049Z,101261.69
2022-10-13T19:11:32.376Z,101255.97
2022-10-13T19:14:00.500Z,101264.03
2022-10-13T19:16:29.850Z,101254.84
2022-10-13T19:18:57.928Z,101253.06
2022-10-13T19:21:25.991Z,101255.00
2022-10-13T19:23:53.351Z,101256.84
2022-10-13T19:26:26.758Z,101249.19
2022-10-13T19:28:59.494Z,101245.88
2022-10-13T19:31:30.377Z,101237.88
2022-10-13T19:33:58.842Z,101232.44
2022-10-13T19:36:27.733Z,101228.88
2022-10-13T19:38:55.199Z,101236.59
2022-10-13T19:41:22.544Z,101229.75
2022-10-13T19:43:51.146Z,101238.44
2022-10-13T19:46:18.766Z,101246.28
2022-10-13T19:48:46.199Z,101241.84
2022-10-13T19:51:14.012Z,101241.00
2022-10-13T19:53:41.673Z,101232.50
2022-10-13T19:56:09.446Z,101248.16
2022-10-13T19:58:36.910Z,101230.88
2022-10-13T20:01:08.679Z,101242.41
2022-10-13T20:03:35.809Z,101227.03
2022-10-13T20:06:07.150Z,101230.59
2022-10-13T20:08:34.364Z,101223.50
2022-10-13T20:11:07.593Z,101220.25
2022-10-13T20:13:34.587Z,101216.03
2022-10-13T20:16:09.827Z,101222.09
2022-10-13T20:18:37.755Z,101224.78
2022-10-13T20:21:06.902Z,101221.41
2022-10-13T20:23:34.768Z,101214.31
2022-10-13T20:26:06.418Z,101219.63
2022-10-13T20:28:33.561Z,101223.09
2022-10-13T20:31:04.312Z,101225.63
2022-10-13T20:33:32.992Z,101223.19
2022-10-13T20:36:01.544Z,101233.47
2022-10-13T20:38:35.782Z,101235.97
2022-10-13T20:41:06.477Z,101235.91
2022-10-13T20:43:33.922Z,101232.56
2022-10-13T20:46:06.550Z,101234.56
2022-10-13T20:48:51.466Z,101236.81
2022-10-13T20:51:24.254Z,101243.47
2022-10-13T20:53:51.962Z,101232.84
2022-10-13T20:56:24.547Z,101243.25
2022-10-13T20:58:51.808Z,101235.69
2022-10-13T21:01:21.274Z,101229.06
2022-10-13T21:03:53.148Z,101228.53
2022-10-13T21:06:20.303Z,101227.19
2022-10-13T21:08:47.827Z,101218.78
2022-10-13T21:11:16.400Z,101217.34
2022-10-13T21:13:44.832Z,101209.97
2022-10-13T21:16:18.580Z,101211.97
2022-10-13T21:18:49.432Z,101228.75
2022-10-13T21:21:23.288Z,101228.88
2022-10-13T21:23:51.708Z,101231.50
2022-10-13T21:26:21.589Z,101239.56
2022-10-13T21:28:50.257Z,101234.44
2022-10-13T21:31:19.340Z,101233.81
2022-10-13T21:33:46.347Z,101240.94
2022-10-13T21:36:20.056Z,101235.81
2022-10-13T21:38:48.435Z,101232.44
2022-10-13T21:41:15.591Z,101228.25
2022-10-13T21:43:42.685Z,101225.78
2022-10-13T21:46:09.831Z,101231.06
2022-10-13T21:48:37.337Z,101228.56
2022-10-13T21:51:22.570Z,101222.44
2022-10-13T21:53:51.458Z,101232.19
2022-10-13T21:56:19.316Z,101220.88
2022-10-13T21:58:46.667Z,101220.88
2022-10-13T22:01:13.664Z,101212.31
2022-10-13T22:03:41.900Z,101208.09
2022-10-13T22:06:18.430Z,101211.59
2022-10-13T22:08:47.923Z,101210.03
2022-10-13T22:11:16.097Z,101201.44
2022-10-13T22:13:43.494Z,101191.16
2022-10-13T22:16:18.792Z,101196.31
2022-10-13T22:18:45.987Z,101197.22
2022-10-13T22:21:19.127Z,101187.66
2022-10-13T22:23:46.632Z,101182.50
2022-10-13T22:26:14.910Z,101190.44
2022-10-13T22:28:42.821Z,101193.00
2022-10-13T22:31:12.290Z,101189.53
2022-10-13T22:33:42.302Z,101183.44
2022-10-13T22:36:14.727Z,101186.22
2022-10-13T22:38:42.080Z,101181.06
2022-10-13T22:41:09.327Z,101183.66
2022-10-13T22:43:36.851Z,101185.63
2022-10-13T22:46:04.658Z,101179.53
2022-10-13T22:48:36.934Z,101181.34
2022-10-13T22:51:07.296Z,101183.19
2022-10-13T22:53:34.547Z,101183.31
2022-10-13T22:56:07.689Z,101177.25
2022-10-13T22:58:34.686Z,101175.59
2022-10-13T23:01:13.567Z,101160.91
2022-10-13T23:03:41.022Z,101163.53
2022-10-13T23:06:13.444Z,101154.78
2022-10-13T23:08:40.535Z,101160.00
2022-10-13T23:11:07.500Z,101159.03
2022-10-13T23:13:34.473Z,101156.41
2022-10-13T23:16:06.860Z,101140.09
2022-10-13T23:18:33.712Z,101147.00
2022-10-13T23:21:06.488Z,101148.69
2022-10-13T23:23:35.275Z,101142.75
2022-10-13T23:26:10.866Z,101147.97
2022-10-13T23:28:38.462Z,101141.91
2022-10-13T23:31:17.151Z,101130.53
2022-10-13T23:33:46.760Z,101134.09
2022-10-13T23:36:18.057Z,101136.69
2022-10-13T23:38:45.722Z,101122.16
2022-10-13T23:41:14.966Z,101128.88
2022-10-13T23:43:42.370Z,101126.50
2022-10-13T23:46:11.152Z,101122.84
2022-10-13T23:48:39.889Z,101116.03
2022-10-13T23:51:12.784Z,101111.81
2022-10-13T23:53:43.826Z,101111.09
2022-10-13T23:56:12.043Z,101106.84
2022-10-13T23:58:45.130Z,101112.94
